createdAt,value
2019-04-27T00:02:22.203Z,24.70
2019-04-27T00:05:14.330Z,22.77
2019-04-27T00:08:18.209Z,22.83
2019-04-27T00:11:13.968Z,22.70
2019-04-27T00:13:59.084Z,22.90
2019-04-27T00:16:50.522Z,22.90
2019-04-27T00:19:41.089Z,23.17
2019-04-27T00:22:33.551Z,23.03
2019-04-27T00:25:18.534Z,22.77
2019-04-27T00:28:05.404Z,22.70
2019-04-27T00:30:50.419Z,22.83
2019-04-27T00:33:35.285Z,20.80
2019-04-27T00:36:23.275Z,22.00
2019-04-27T00:39:23.094Z,21.20
2019-04-27T00:42:08.546Z,20.87
2019-04-27T00:44:54.207Z,20.60
2019-04-27T00:47:39.532Z,21.87
2019-04-27T00:50:24.761Z,22.10
2019-04-27T00:53:10.102Z,23.20
2019-04-27T00:56:14.010Z,20.63
2019-04-27T00:59:18.146Z,21.53
2019-04-27T01:02:10.786Z,19.57
2019-04-27T01:04:56.047Z,21.60
2019-04-27T01:07:43.431Z,20.10
2019-04-27T01:10:28.232Z,20.13
2019-04-27T01:13:13.317Z,20.87
2019-04-27T01:15:58.425Z,19.23
2019-04-27T01:18:44.131Z,19.80
2019-04-27T01:21:29.566Z,20.73
2019-04-27T01:24:15.253Z,18.20
2019-04-27T01:27:04.830Z,19.27
2019-04-27T01:29:50.631Z,19.00
2019-04-27T01:32:35.558Z,17.90
2019-04-27T01:35:20.467Z,21.37
2019-04-27T01:38:05.370Z,23.83
2019-04-27T01:40:50.314Z,19.47
2019-04-27T01:43:35.280Z,18.23
2019-04-27T01:46:20.850Z,19.80
2019-04-27T01:49:06.505Z,17.87
2019-04-27T01:51:51.350Z,19.37
2019-04-27T01:54:36.221Z,20.83
2019-04-27T01:57:21.201Z,17.73
2019-04-27T02:00:29.370Z,17.67
2019-04-27T02:03:33.344Z,18.23
2019-04-27T02:06:19.079Z,17.23
2019-04-27T02:09:05.998Z,18.10
2019-04-27T02:11:51.482Z,17.80
2019-04-27T02:14:36.457Z,17.27
2019-04-27T02:17:21.232Z,17.57
2019-04-27T02:20:07.010Z,17.93
2019-04-27T02:22:51.779Z,17.97
2019-04-27T02:25:36.626Z,16.60
2019-04-27T02:28:39.438Z,16.07
2019-04-27T02:31:41.638Z,17.30
2019-04-27T02:34:43.809Z,16.10
2019-04-27T02:37:30.464Z,16.80
2019-04-27T02:40:36.475Z,17.50
2019-04-27T02:43:40.418Z,17.60
2019-04-27T02:46:25.383Z,21.57
2019-04-27T02:49:10.808Z,23.80
2019-04-27T02:52:00.527Z,25.90
2019-04-27T02:54:46.811Z,22.20
2019-04-27T02:57:31.660Z,18.97
2019-04-27T03:00:17.132Z,17.63
2019-04-27T03:03:03.705Z,19.03
2019-04-27T03:05:50.286Z,16.63
2019-04-27T03:08:35.787Z,16.40
2019-04-27T03:11:23.441Z,15.67
2019-04-27T03:14:31.713Z,15.70
2019-04-27T03:17:09.779Z,20.50
2019-04-27T03:20:13.077Z,15.30
2019-04-27T03:23:00.206Z,16.43
2019-04-27T03:26:03.730Z,15.90
2019-04-27T03:28:50.324Z,15.00
2019-04-27T03:31:35.642Z,14.83
2019-04-27T03:34:22.230Z,15.33
2019-04-27T03:37:10.152Z,15.87
2019-04-27T03:39:54.500Z,14.17
2019-04-27T03:42:41.281Z,14.37
2019-04-27T03:45:29.724Z,15.83
2019-04-27T03:48:14.443Z,13.73
2019-04-27T03:51:09.982Z,14.60
2019-04-27T03:53:57.308Z,17.70
2019-04-27T03:56:44.377Z,14.37
2019-04-27T03:59:50.626Z,12.77
2019-04-27T04:02:35.362Z,13.43
2019-04-27T04:05:20.710Z,13.43
2019-04-27T04:08:06.180Z,13.60
2019-04-27T04:10:53.517Z,13.77
2019-04-27T04:13:40.119Z,13.87
2019-04-27T04:16:29.484Z,14.30
2019-04-27T04:19:14.076Z,13.90
2019-04-27T04:21:59.812Z,12.60
2019-04-27T04:24:45.194Z,14.10
2019-04-27T04:27:30.187Z,10.87
2019-04-27T04:30:15.326Z,13.60
2019-04-27T04:33:00.676Z,10.03
2019-04-27T04:35:46.667Z,10.63
2019-04-27T04:38:31.909Z,9.77
2019-04-27T04:41:21.281Z,9.93
2019-04-27T04:44:16.763Z,10.63
2019-04-27T04:47:10.520Z,10.77
2019-04-27T04:50:08.524Z,8.33
2019-04-27T04:52:43.836Z,8.30
2019-04-27T04:55:30.601Z,7.50
2019-04-27T04:58:16.856Z,8.70
2019-04-27T05:01:02.120Z,6.63
2019-04-27T05:03:48.735Z,7.13
2019-04-27T05:06:34.115Z,7.17
2019-04-27T05:09:19.345Z,11.50
2019-04-27T05:12:04.725Z,8.97
2019-04-27T05:14:50.143Z,10.47
2019-04-27T05:17:35.375Z,9.57
2019-04-27T05:20:26.188Z,11.03
2019-04-27T05:23:09.682Z,8.37
2019-04-27T05:25:55.028Z,11.13
2019-04-27T05:28:40.879Z,7.53
2019-04-27T05:31:26.193Z,7.13
2019-04-27T05:34:11.189Z,7.37
2019-04-27T05:36:56.409Z,4.47
2019-04-27T05:39:41.402Z,4.70
2019-04-27T05:42:26.321Z,5.10
2019-04-27T05:45:22.728Z,4.03
2019-04-27T05:48:27.476Z,5.33
2019-04-27T05:51:09.190Z,3.90
2019-04-27T05:53:54.118Z,3.03
2019-04-27T05:56:39.137Z,3.83
2019-04-27T05:59:24.009Z,4.97
2019-04-27T06:02:09.486Z,3.23
2019-04-27T06:04:55.103Z,5.53
2019-04-27T06:07:39.855Z,2.20
2019-04-27T06:10:24.923Z,5.17
2019-04-27T06:13:10.676Z,3.07
2019-04-27T06:15:56.055Z,2.93
2019-04-27T06:18:41.506Z,2.50
2019-04-27T06:21:26.828Z,1.77
2019-04-27T06:24:11.984Z,2.37
2019-04-27T06:26:59.705Z,1.73
2019-04-27T06:29:44.555Z,3.63
2019-04-27T06:32:29.877Z,3.37
2019-04-27T06:35:14.916Z,2.43
2019-04-27T06:38:00.567Z,3.40
2019-04-27T06:40:45.597Z,2.67
2019-04-27T06:43:30.472Z,3.00
2019-04-27T06:46:15.568Z,3.63
2019-04-27T06:49:00.625Z,4.17
2019-04-27T06:51:45.431Z,3.67
2019-04-27T06:54:30.401Z,5.53
2019-04-27T06:57:15.812Z,2.93
2019-04-27T07:00:00.718Z,2.83
2019-04-27T07:02:45.533Z,2.93
2019-04-27T07:05:30.199Z,3.50
2019-04-27T07:08:14.964Z,3.97
2019-04-27T07:10:59.845Z,4.37
2019-04-27T07:13:45.427Z,1.83
2019-04-27T07:16:30.715Z,3.10
2019-04-27T07:19:15.733Z,2.80
2019-04-27T07:22:01.011Z,2.50
2019-04-27T07:24:45.718Z,3.13
2019-04-27T07:27:30.582Z,2.83
2019-04-27T07:30:16.042Z,3.10
2019-04-27T07:33:01.093Z,3.02
2019-04-27T07:35:46.078Z,4.07
2019-04-27T07:38:31.263Z,12.80
2019-04-27T07:44:13.886Z,1.73
2019-04-27T07:47:15.866Z,2.42
2019-04-27T07:50:01.627Z,2.30
2019-04-27T07:52:48.686Z,2.07
2019-04-27T07:55:33.882Z,3.12
2019-04-27T07:58:20.582Z,1.80
2019-04-27T08:01:06.098Z,1.93
2019-04-27T08:03:51.736Z,1.50
2019-04-27T08:06:38.738Z,1.35
2019-04-27T08:09:24.288Z,1.72
2019-04-27T08:12:10.892Z,2.90
2019-04-27T08:14:56.416Z,3.67
2019-04-27T08:17:42.898Z,1.60
2019-04-27T08:20:29.399Z,2.55
2019-04-27T08:23:14.928Z,1.87
2019-04-27T08:25:59.876Z,2.22
2019-04-27T08:28:46.682Z,4.03
2019-04-27T08:31:33.762Z,3.75
2019-04-27T08:34:31.363Z,4.17
2019-04-27T08:37:18.813Z,2.83
2019-04-27T08:40:05.167Z,5.12
2019-04-27T08:42:51.334Z,2.55
2019-04-27T08:45:39.211Z,3.55
2019-04-27T08:48:33.884Z,1.87
2019-04-27T08:51:11.122Z,1.57
2019-04-27T08:53:56.237Z,4.45
2019-04-27T08:56:41.164Z,3.15
2019-04-27T08:59:25.856Z,5.55
2019-04-27T09:02:10.655Z,3.33
2019-04-27T09:04:56.575Z,4.92
2019-04-27T09:07:52.448Z,5.62
2019-04-27T09:10:42.003Z,3.83
2019-04-27T09:13:35.021Z,4.28
2019-04-27T09:16:21.908Z,4.28
2019-04-27T09:19:08.931Z,3.33
2019-04-27T09:22:11.730Z,3.27
2019-04-27T09:24:45.272Z,2.62
2019-04-27T09:27:30.807Z,4.83
2019-04-27T09:30:16.024Z,6.42
2019-04-27T09:33:00.871Z,4.95
2019-04-27T09:35:46.605Z,2.33
2019-04-27T09:38:32.028Z,5.35
2019-04-27T09:41:17.014Z,2.52
2019-04-27T09:44:02.647Z,2.77
2019-04-27T09:46:47.841Z,2.47
2019-04-27T09:49:33.092Z,2.50
2019-04-27T09:52:25.909Z,1.87
2019-04-27T09:55:08.527Z,4.42
2019-04-27T09:57:53.968Z,3.27
2019-04-27T10:00:39.262Z,2.83
2019-04-27T10:03:24.177Z,5.07
2019-04-27T10:06:10.411Z,3.77
2019-04-27T10:08:56.004Z,2.13
2019-04-27T10:11:42.056Z,2.97
2019-04-27T10:14:26.772Z,4.43
2019-04-27T10:17:11.651Z,3.00
2019-04-27T10:19:57.108Z,3.07
2019-04-27T10:22:43.635Z,2.20
2019-04-27T10:25:29.588Z,2.87
2019-04-27T10:28:14.582Z,1.57
2019-04-27T10:30:59.246Z,2.23
2019-04-27T10:33:45.740Z,4.53
2019-04-27T10:36:39.975Z,1.40
2019-04-27T10:39:27.736Z,2.10
2019-04-27T10:42:12.065Z,3.30
2019-04-27T10:44:57.829Z,2.77
2019-04-27T10:47:43.162Z,3.97
2019-04-27T10:50:28.587Z,4.53
2019-04-27T10:53:16.802Z,3.80
2019-04-27T10:56:02.031Z,4.60
2019-04-27T10:58:47.268Z,5.93
2019-04-27T11:01:32.727Z,7.17
2019-04-27T11:04:19.626Z,5.60
2019-04-27T11:07:10.781Z,10.80
2019-04-27T11:09:55.801Z,5.30
2019-04-27T11:12:41.607Z,5.57
2019-04-27T11:15:27.498Z,5.40
2019-04-27T11:18:12.673Z,7.10
2019-04-27T11:20:57.889Z,3.20
2019-04-27T11:23:43.279Z,3.33
2019-04-27T11:26:28.561Z,3.10
2019-04-27T11:29:14.503Z,3.40
2019-04-27T11:32:00.574Z,3.63
2019-04-27T11:34:50.346Z,4.00
2019-04-27T11:37:37.842Z,5.43
2019-04-27T11:40:23.941Z,4.33
2019-04-27T11:43:08.844Z,4.97
2019-04-27T11:45:55.772Z,6.23
2019-04-27T11:48:41.627Z,4.10
2019-04-27T11:51:26.718Z,5.57
2019-04-27T11:54:12.137Z,3.53
2019-04-27T11:56:59.618Z,2.60
2019-04-27T11:59:44.586Z,2.70
2019-04-27T12:02:31.212Z,2.70
2019-04-27T12:05:16.295Z,2.53
2019-04-27T12:08:01.621Z,3.20
2019-04-27T12:10:48.652Z,3.10
2019-04-27T12:13:35.821Z,3.30
2019-04-27T12:16:20.526Z,2.67
2019-04-27T12:19:06.526Z,2.83
2019-04-27T12:21:51.717Z,4.13
2019-04-27T12:24:39.333Z,2.60
2019-04-27T12:27:26.011Z,2.73
2019-04-27T12:30:18.883Z,2.90
2019-04-27T12:33:04.491Z,3.20
2019-04-27T12:35:50.113Z,3.53
2019-04-27T12:38:36.494Z,2.50
2019-04-27T12:41:21.968Z,3.37
2019-04-27T12:44:07.608Z,3.33
2019-04-27T12:46:52.676Z,3.10
2019-04-27T12:49:37.362Z,6.23
2019-04-27T12:52:23.231Z,5.87
2019-04-27T12:55:16.789Z,3.73
2019-04-27T12:58:12.621Z,3.17
2019-04-27T13:01:02.165Z,5.03
2019-04-27T13:03:47.396Z,5.77
2019-04-27T13:06:32.298Z,6.07
2019-04-27T13:09:17.381Z,5.60
2019-04-27T13:12:02.823Z,5.87
2019-04-27T13:14:47.943Z,6.70
2019-04-27T13:17:32.833Z,7.63
2019-04-27T13:20:18.514Z,8.90
2019-04-27T13:23:03.744Z,6.47
2019-04-27T13:25:48.918Z,9.33
2019-04-27T13:28:33.791Z,9.13
2019-04-27T13:31:19.146Z,11.30
2019-04-27T13:34:05.759Z,9.33
2019-04-27T13:36:50.807Z,8.57
2019-04-27T13:39:36.001Z,6.70
2019-04-27T13:42:20.990Z,8.63
2019-04-27T13:45:13.971Z,10.00
2019-04-27T13:48:09.862Z,8.17
2019-04-27T13:51:06.623Z,10.60
2019-04-27T13:53:51.802Z,10.80
2019-04-27T13:56:36.879Z,8.20
2019-04-27T13:59:23.116Z,8.03
2019-04-27T14:02:08.498Z,9.57
2019-04-27T14:04:53.546Z,7.93
2019-04-27T14:07:40.645Z,5.83
2019-04-27T14:10:25.093Z,8.07
2019-04-27T14:13:11.079Z,7.77
2019-04-27T14:15:56.361Z,7.43
2019-04-27T14:18:41.308Z,9.57
2019-04-27T14:21:26.696Z,8.97
2019-04-27T14:24:11.714Z,8.27
2019-04-27T14:26:57.255Z,9.00
2019-04-27T14:29:42.563Z,10.30
2019-04-27T14:32:28.700Z,8.63
2019-04-27T14:35:14.101Z,12.23
2019-04-27T14:37:59.148Z,12.17
2019-04-27T14:40:44.420Z,6.97
2019-04-27T14:43:29.410Z,11.57
2019-04-27T14:46:15.545Z,8.00
2019-04-27T14:49:00.571Z,9.77
2019-04-27T14:51:45.537Z,8.30
2019-04-27T14:54:45.206Z,8.60
2019-04-27T14:57:18.446Z,7.23
2019-04-27T15:00:05.240Z,9.63
2019-04-27T15:02:50.376Z,6.33
2019-04-27T15:05:35.532Z,7.77
2019-04-27T15:08:20.678Z,8.40
2019-04-27T15:11:10.474Z,9.10
2019-04-27T15:13:54.880Z,7.60
2019-04-27T15:16:42.203Z,9.20
2019-04-27T15:19:43.610Z,6.50
2019-04-27T15:22:31.690Z,9.73
2019-04-27T15:25:16.573Z,8.73
2019-04-27T15:28:07.364Z,5.80
2019-04-27T15:30:53.284Z,6.13
2019-04-27T15:33:56.963Z,9.17
2019-04-27T15:36:46.365Z,5.63
2019-04-27T15:39:50.479Z,7.33
2019-04-27T15:42:48.983Z,6.67
2019-04-27T15:45:28.603Z,6.67
2019-04-27T15:48:14.210Z,7.53
2019-04-27T15:51:03.268Z,5.70
2019-04-27T15:53:50.774Z,4.77
2019-04-27T15:56:35.493Z,5.00
2019-04-27T15:59:23.877Z,5.43
2019-04-27T16:02:15.331Z,4.90
2019-04-27T16:04:58.279Z,5.27
2019-04-27T16:07:43.569Z,5.37
2019-04-27T16:10:32.702Z,4.87
2019-04-27T16:13:17.678Z,3.53
2019-04-27T16:16:03.078Z,3.30
2019-04-27T16:18:49.175Z,5.03
2019-04-27T16:21:34.682Z,5.10
2019-04-27T16:24:21.173Z,3.80
2019-04-27T16:27:07.104Z,4.93
2019-04-27T16:29:52.256Z,3.33
2019-04-27T16:32:40.357Z,3.53
2019-04-27T16:35:25.074Z,4.50
2019-04-27T16:38:18.415Z,3.47
2019-04-27T16:41:03.715Z,7.17
2019-04-27T16:43:49.045Z,3.60
2019-04-27T16:46:35.030Z,2.93
2019-04-27T16:49:23.023Z,3.65
2019-04-27T16:52:09.819Z,2.47
2019-04-27T16:54:57.344Z,4.42
2019-04-27T16:57:42.031Z,4.00
2019-04-27T17:00:30.272Z,2.20
2019-04-27T17:03:14.817Z,3.40
2019-04-27T17:06:04.043Z,2.57
2019-04-27T17:08:49.456Z,5.40
2019-04-27T17:11:33.971Z,3.90
2019-04-27T17:14:28.926Z,3.97
2019-04-27T17:17:21.535Z,2.73
2019-04-27T17:20:08.541Z,3.10
2019-04-27T17:22:53.988Z,2.43
2019-04-27T17:25:43.090Z,3.07
2019-04-27T17:28:50.435Z,3.53
2019-04-27T17:31:38.138Z,3.87
2019-04-27T17:34:25.387Z,2.73
2019-04-27T17:37:10.086Z,3.97
2019-04-27T17:39:59.512Z,3.53
2019-04-27T17:42:43.616Z,3.70
2019-04-27T17:45:30.463Z,3.47
2019-04-27T17:48:16.176Z,3.37
2019-04-27T17:51:03.554Z,3.03
2019-04-27T17:53:49.972Z,5.30
2019-04-27T17:56:36.363Z,5.07
2019-04-27T17:59:22.711Z,7.60
2019-04-27T18:02:08.948Z,4.27
2019-04-27T18:04:53.936Z,3.93
2019-04-27T18:07:43.915Z,5.03
2019-04-27T18:10:27.799Z,5.27
2019-04-27T18:13:13.940Z,6.53
2019-04-27T18:15:59.348Z,4.53
2019-04-27T18:19:07.813Z,4.33
2019-04-27T18:22:02.901Z,5.00
2019-04-27T18:25:03.362Z,5.67
2019-04-27T18:27:44.855Z,4.07
2019-04-27T18:30:33.761Z,4.27
2019-04-27T18:33:19.241Z,5.00
2019-04-27T18:36:07.292Z,4.97
2019-04-27T18:38:51.267Z,3.97
2019-04-27T18:41:37.683Z,4.53
2019-04-27T18:44:23.939Z,31.30
2019-04-27T18:47:10.169Z,12.33
2019-04-27T18:50:07.439Z,5.67
2019-04-27T18:52:48.217Z,5.73
2019-04-27T18:55:33.967Z,6.50
2019-04-27T18:58:19.964Z,5.70
2019-04-27T19:01:05.566Z,6.10
2019-04-27T19:03:51.611Z,4.90
2019-04-27T19:06:39.008Z,7.13
2019-04-27T19:09:24.870Z,4.47
2019-04-27T19:12:10.869Z,6.37
2019-04-27T19:14:56.051Z,5.00
2019-04-27T19:17:41.486Z,4.90
2019-04-27T19:20:28.777Z,6.97
2019-04-27T19:23:13.995Z,5.37
2019-04-27T19:26:13.142Z,5.37
2019-04-27T19:29:10.541Z,6.80
2019-04-27T19:31:58.628Z,5.07
2019-04-27T19:34:44.021Z,5.20
2019-04-27T19:37:29.213Z,5.30
2019-04-27T19:40:15.009Z,5.20
2019-04-27T19:43:00.352Z,6.07
2019-04-27T19:45:45.388Z,9.67
2019-04-27T19:48:30.781Z,8.33
2019-04-27T19:51:16.331Z,7.63
2019-04-27T19:54:01.847Z,8.60
2019-04-27T19:56:46.959Z,6.30
2019-04-27T19:59:38.068Z,9.57
2019-04-27T20:02:23.940Z,8.27
2019-04-27T20:05:11.051Z,6.67
2019-04-27T20:07:57.934Z,6.80
2019-04-27T20:10:43.882Z,7.63
2019-04-27T20:13:29.259Z,7.30
2019-04-27T20:16:14.417Z,9.87
2019-04-27T20:19:01.421Z,7.40
2019-04-27T20:21:46.701Z,6.97
2019-04-27T20:24:33.559Z,6.20
2019-04-27T20:27:18.738Z,8.90
2019-04-27T20:30:07.296Z,8.03
2019-04-27T20:32:52.294Z,8.03
2019-04-27T20:35:37.346Z,7.97
2019-04-27T20:38:24.169Z,8.70
2019-04-27T20:41:09.460Z,6.53
2019-04-27T20:43:54.439Z,8.30
2019-04-27T20:46:41.392Z,9.37
2019-04-27T20:49:26.319Z,10.73
2019-04-27T20:52:13.717Z,8.47
2019-04-27T20:54:59.204Z,8.67
2019-04-27T20:57:44.353Z,6.97
2019-04-27T21:00:31.850Z,7.70
2019-04-27T21:03:36.970Z,9.30
2019-04-27T21:06:23.687Z,7.20
2019-04-27T21:09:11.270Z,8.60
2019-04-27T21:11:56.306Z,9.37
2019-04-27T21:14:41.837Z,12.53
2019-04-27T21:17:27.133Z,10.13
2019-04-27T21:20:13.287Z,9.07
2019-04-27T21:22:59.411Z,11.13
2019-04-27T21:25:44.691Z,10.50
2019-04-27T21:28:30.134Z,9.40
2019-04-27T21:31:15.379Z,10.37
2019-04-27T21:34:02.533Z,10.83
2019-04-27T21:36:47.741Z,7.97
2019-04-27T21:39:32.626Z,9.63
2019-04-27T21:42:17.777Z,9.80
2019-04-27T21:45:04.624Z,10.83
2019-04-27T21:47:51.737Z,11.87
2019-04-27T21:50:37.014Z,9.20
2019-04-27T21:53:42.166Z,8.43
2019-04-27T21:56:27.255Z,10.67
2019-04-27T21:59:13.223Z,9.73
2019-04-27T22:02:01.681Z,10.13
2019-04-27T22:04:47.389Z,10.60
2019-04-27T22:07:33.164Z,9.37
2019-04-27T22:10:18.197Z,10.87
2019-04-27T22:13:03.449Z,10.20
2019-04-27T22:15:48.665Z,12.93
2019-04-27T22:18:34.299Z,13.03
2019-04-27T22:21:19.347Z,14.13
2019-04-27T22:24:06.299Z,13.63
2019-04-27T22:26:51.768Z,16.47
2019-04-27T22:29:37.074Z,17.13
2019-04-27T22:32:22.529Z,17.47
2019-04-27T22:35:07.959Z,18.83
2019-04-27T22:37:53.148Z,17.53
2019-04-27T22:40:56.638Z,15.70
2019-04-27T22:43:51.295Z,17.73
2019-04-27T22:46:41.145Z,16.17
2019-04-27T22:49:26.645Z,18.17
2019-04-27T22:52:12.530Z,17.33
2019-04-27T22:54:57.835Z,17.20
2019-04-27T22:57:44.910Z,19.87
2019-04-27T23:00:35.239Z,18.10
2019-04-27T23:03:22.300Z,13.67
2019-04-27T23:06:07.126Z,15.67
2019-04-27T23:08:52.250Z,17.77
2019-04-27T23:11:37.466Z,17.73
2019-04-27T23:14:22.660Z,14.47
2019-04-27T23:17:15.471Z,16.20
2019-04-27T23:20:01.341Z,13.33
2019-04-27T23:22:48.233Z,16.13
2019-04-27T23:25:35.131Z,13.03
2019-04-27T23:28:20.888Z,11.27
2019-04-27T23:31:13.784Z,13.80
2019-04-27T23:33:58.721Z,15.00
2019-04-27T23:36:44.381Z,14.70
2019-04-27T23:39:29.390Z,15.83
2019-04-27T23:42:14.643Z,13.87
2019-04-27T23:44:59.954Z,12.37
2019-04-27T23:47:45.142Z,18.13
2019-04-27T23:50:32.075Z,14.03
2019-04-27T23:53:18.829Z,13.20
2019-04-27T23:56:04.023Z,16.63
2019-04-27T23:58:49.475Z,12.43
